Airfield :
LOGIN :

Register | Disclaimer

   EN    FR    IT 

 










Legend :    VFR   Marginal VFR   IFR   Intensive IFR   Very Intensive IFR
Visi :
Ceiling :
>= 8 km
>= 3000ft
5 to 8 km
1000 to 3000 ft
1500m to 5 km
500 to 1000 ft
800 to 1500m
200 to 500 ft
< 800m
< 200 ft
Symbols :   Thunderstorms  Fog  Heavy snow  Heavy precipitations  Wind > 20 kt
SIGMETs :     Misc.  Thunderstorms  Icing  Turbulence  Mountain Waves  Volcanic Ashes






- Airport Elevation : 22 ft
- IATA code : FSS


EGQK - RAF Kinloss

CURRENT METAR :
  • 301120Z AUTO 26010KT 9999 FEW030/// SCT041/// 06/02 Q1018

EXPIRED METARs :
  • 301050Z AUTO 22006KT 9999 NCD 06/02 Q1018
  • 301020Z AUTO 28014KT 9999 NCD 05/02 Q1017
  • 300950Z AUTO 28016KT 9999 BKN028/// 05/02 Q1017
  • 300920Z AUTO 26009KT 9999 SCT030/// 04/02 Q1017
  • 300850Z AUTO 25007KT 9999 FEW032/// 05/01 Q1017

Expired Forecast.



MET'MAP, your aeronautical weather chart ! - Copyright ORBIFLY December 2007 - Disclaimer

ORBIFLY MET'MAP TEAM :

Programming & Development : Alexandra Zaïnal
Original concept : Baudouin d'Aumeries
Technical & hardware support : Manuel Goepfert
Assistance : Marc-Olivier Méhu




SOURCES & CREDITS :

   NOAA